M V Trinidad — LAIY4 — position and weather

sailwx.info

Track history (hours):
 
Tides and Currents Weather Stations Pressure Air Temp Water Temp Dewpoint Dewpoint Depression Visibility Wind Speed Wind Dir Waves Ship Positions

M V Trinidad

Last reported at 2014-Jul-17 18:16 UTC. Time now 2014-Jul-29 08:52 UTC.
Position N 32°46' W 119°04'.
Warning: this ship's position is 11 days out of date.

Length 189 m; draft 8.8 m.

Type: Cargo ship. MMSI: 257425411.

Date/timePositionNaut miles runAvg speedWind from/ knotsBaromVisibWave heightAir tempDewpointWater temp
2014-Jul-17 18:16N 32°46' W 119°04'4215.1
2014-Jul-17 15:32N 32°38' W 118°16'1414.9
2014-Jul-17 14:33N 32°37' W 117°59'1514.7
2014-Jul-17 13:33N 32°36' W 117°41'1514.8
2014-Jul-17 12:33N 32°36' W 117°24'9 9.4
2014-Jul-17 11:33N 32°39' W 117°14'5 5.3
2014-Jul-17 10:33N 32°39' W 117°07'0 0.4
2014-Jul-17 09:32N 32°39' W 117°07'0 0.0
2014-Jul-17 08:32N 32°39' W 117°07'0 0.0
2014-Jul-17 07:32N 32°39' W 117°07'0 0.0
2014-Jul-17 06:32N 32°39' W 117°07'0 0.0
2014-Jul-17 05:32N 32°39' W 117°07'0 0.0
2014-Jul-17 04:32N 32°39' W 117°07'0 0.0
2014-Jul-17 03:32N 32°39' W 117°07'0 0.0
2014-Jul-17 02:32N 32°39' W 117°07'0 0.0
2014-Jul-17 01:32N 32°39' W 117°07'0 0.0
2014-Jul-17 00:32N 32°39' W 117°07'0 0.0
2014-Jul-16 23:32N 32°39' W 117°07'0 0.0
2014-Jul-16 22:32N 32°39' W 117°07'0 0.0
2014-Jul-16 21:32N 32°39' W 117°07'0 0.0
2014-Jul-16 20:32N 32°39' W 117°07'0 0.0
2014-Jul-16 19:32N 32°39' W 117°07'1 0.7
2014-Jul-16 18:33N 32°39' W 117°07'5 5.2
2014-Jul-16 17:33N 32°40' W 117°14'5 4.6
2014-Jul-16 16:33N 32°36' W 117°17'8 7.6
2014-Jul-16 15:33N 32°36' W 117°26'1212.5
2014-Jul-16 14:34N 32°36' W 117°41'1414.4
2014-Jul-16 13:34N 32°36' W 117°58'1414.1
2014-Jul-16 12:34N 32°36' W 118°15'1414.2
2014-Jul-16 11:33N 32°36' W 118°32'1110.6
2014-Jul-16 10:33N 32°41' W 118°42'1413.8
2014-Jul-16 09:33N 32°55' W 118°42'1413.9
2014-Jul-16 08:33N 33°09' W 118°42'1413.9
2014-Jul-16 07:33N 33°23' W 118°42'1413.9
2014-Jul-16 06:33N 33°34' W 118°51'1614.0
2014-Jul-16 05:26N 33°49' W 118°58'2311.1
2014-Jul-16 03:24N 34°07' W 119°14'4 0.3
2014-Jul-15 14:06N 34°03' W 119°16'1711.3
2014-Jul-15 12:33N 34°07' W 119°37'1514.7
2014-Jul-15 11:33N 34°11' W 119°54'1514.5
2014-Jul-15 10:33N 34°15' W 120°11'5812.9
2014-Jul-15 06:05N 34°29' W 121°18'1912.7
2014-Jul-15 04:33N 34°33' W 121°41'1313.1
2014-Jul-15 03:33N 34°36' W 121°57'1414.0
2014-Jul-15 02:33N 34°37' W 122°14'1414.0
2014-Jul-15 01:32N 34°41' W 122°30'1414.5
2014-Jul-15 00:34N 34°44' W 122°47'1514.6
2014-Jul-14 23:33N 34°47' W 123°05'1111.2
2014-Jul-14 22:33N 34°49' W 123°18'1514.6
2014-Jul-14 21:33N 34°52' W 123°35'1514.5
2014-Jul-14 20:33N 34°55' W 123°53'1514.1
2014-Jul-14 19:31N 34°58' W 124°10'1414.1
2014-Jul-14 18:33N 35°00' W 124°26'1413.8
2014-Jul-14 17:32N 35°03' W 124°43'1414.1
2014-Jul-14 16:33N 35°06' W 124°60'1413.9
2014-Jul-14 15:33N 35°09' W 125°17'1413.9
2014-Jul-14 14:33N 35°11' W 125°33'1413.7
2014-Jul-14 13:32N 35°16' W 125°49'1414.1
2014-Jul-14 12:33N 35°24' W 126°04'1414.3
2014-Jul-14 11:33N 35°31' W 126°18'1414.1
2014-Jul-14 10:33N 35°39' W 126°33'1414.2
2014-Jul-14 09:33N 35°47' W 126°48'1414.3
2014-Jul-14 08:32N 35°54' W 127°03'1414.3
2014-Jul-14 07:33N 36°02' W 127°18'1514.2
2014-Jul-14 06:30N 36°10' W 127°33'1414.3
2014-Jul-14 05:33N 36°17' W 127°48'1514.6
2014-Jul-14 04:33N 36°25' W 128°03'1514.6
2014-Jul-14 03:31N 36°33' W 128°19'1514.8
2014-Jul-14 02:28N 36°41' W 128°35'1415.1
2014-Jul-14 01:33N 36°49' W 128°50'2115.0
2014-Jul-14 00:08N 36°60' W 129°12'914.9
2014-Jul-13 23:32N 37°05' W 129°22'2014.8
2014-Jul-13 22:11N 37°15' W 129°43'1015.0
2014-Jul-13 21:29N 37°21' W 129°54'1515.1
2014-Jul-13 20:29N 37°29' W 130°10'3115.3
2014-Jul-13 18:26N 37°46' W 130°44'2015.2
2014-Jul-13 17:08N 37°56' W 131°05'2615.2
2014-Jul-13 15:25N 38°10' W 131°33'1515.1
2014-Jul-13 14:26N 38°18' W 131°49'  
Track history (hours):
 
Tides and Currents Weather Stations Pressure Air Temp Water Temp Dewpoint Dewpoint Depression Visibility Wind Speed Wind Dir Waves Ship Positions

M V Trinidad

Last reported at 2014-Jul-17 18:16 UTC. Time now 2014-Jul-29 08:52 UTC.
Position N 32°46' W 119°04'.
Warning: this ship's position is 11 days out of date.

Length 189 m; draft 8.8 m.

Type: Cargo ship. MMSI: 257425411.

Date/timePositionNaut miles runAvg speedWind from/ knotsBaromVisibWave heightAir tempDewpointWater temp
2014-Jul-17 18:16N 32°46' W 119°04'4215.1
2014-Jul-17 15:32N 32°38' W 118°16'1414.9
2014-Jul-17 14:33N 32°37' W 117°59'1514.7
2014-Jul-17 13:33N 32°36' W 117°41'1514.8
2014-Jul-17 12:33N 32°36' W 117°24'9 9.4
2014-Jul-17 11:33N 32°39' W 117°14'5 5.3
2014-Jul-17 10:33N 32°39' W 117°07'0 0.4
2014-Jul-17 09:32N 32°39' W 117°07'0 0.0
2014-Jul-17 08:32N 32°39' W 117°07'0 0.0
2014-Jul-17 07:32N 32°39' W 117°07'0 0.0
2014-Jul-17 06:32N 32°39' W 117°07'0 0.0
2014-Jul-17 05:32N 32°39' W 117°07'0 0.0
2014-Jul-17 04:32N 32°39' W 117°07'0 0.0
2014-Jul-17 03:32N 32°39' W 117°07'0 0.0
2014-Jul-17 02:32N 32°39' W 117°07'0 0.0
2014-Jul-17 01:32N 32°39' W 117°07'0 0.0
2014-Jul-17 00:32N 32°39' W 117°07'0 0.0
2014-Jul-16 23:32N 32°39' W 117°07'0 0.0
2014-Jul-16 22:32N 32°39' W 117°07'0 0.0
2014-Jul-16 21:32N 32°39' W 117°07'0 0.0
2014-Jul-16 20:32N 32°39' W 117°07'0 0.0
2014-Jul-16 19:32N 32°39' W 117°07'1 0.7
2014-Jul-16 18:33N 32°39' W 117°07'5 5.2
2014-Jul-16 17:33N 32°40' W 117°14'5 4.6
2014-Jul-16 16:33N 32°36' W 117°17'8 7.6
2014-Jul-16 15:33N 32°36' W 117°26'1212.5
2014-Jul-16 14:34N 32°36' W 117°41'1414.4
2014-Jul-16 13:34N 32°36' W 117°58'1414.1
2014-Jul-16 12:34N 32°36' W 118°15'1414.2
2014-Jul-16 11:33N 32°36' W 118°32'1110.6
2014-Jul-16 10:33N 32°41' W 118°42'1413.8
2014-Jul-16 09:33N 32°55' W 118°42'1413.9
2014-Jul-16 08:33N 33°09' W 118°42'1413.9
2014-Jul-16 07:33N 33°23' W 118°42'1413.9
2014-Jul-16 06:33N 33°34' W 118°51'1614.0
2014-Jul-16 05:26N 33°49' W 118°58'2311.1
2014-Jul-16 03:24N 34°07' W 119°14'4 0.3
2014-Jul-15 14:06N 34°03' W 119°16'1711.3
2014-Jul-15 12:33N 34°07' W 119°37'1514.7
2014-Jul-15 11:33N 34°11' W 119°54'1514.5
2014-Jul-15 10:33N 34°15' W 120°11'5812.9
2014-Jul-15 06:05N 34°29' W 121°18'1912.7
2014-Jul-15 04:33N 34°33' W 121°41'1313.1
2014-Jul-15 03:33N 34°36' W 121°57'1414.0
2014-Jul-15 02:33N 34°37' W 122°14'1414.0
2014-Jul-15 01:32N 34°41' W 122°30'1414.5
2014-Jul-15 00:34N 34°44' W 122°47'1514.6
2014-Jul-14 23:33N 34°47' W 123°05'1111.2
2014-Jul-14 22:33N 34°49' W 123°18'1514.6
2014-Jul-14 21:33N 34°52' W 123°35'1514.5
2014-Jul-14 20:33N 34°55' W 123°53'1514.1
2014-Jul-14 19:31N 34°58' W 124°10'1414.1
2014-Jul-14 18:33N 35°00' W 124°26'1413.8
2014-Jul-14 17:32N 35°03' W 124°43'1414.1
2014-Jul-14 16:33N 35°06' W 124°60'1413.9
2014-Jul-14 15:33N 35°09' W 125°17'1413.9
2014-Jul-14 14:33N 35°11' W 125°33'1413.7
2014-Jul-14 13:32N 35°16' W 125°49'1414.1
2014-Jul-14 12:33N 35°24' W 126°04'1414.3
2014-Jul-14 11:33N 35°31' W 126°18'1414.1
2014-Jul-14 10:33N 35°39' W 126°33'1414.2
2014-Jul-14 09:33N 35°47' W 126°48'1414.3
2014-Jul-14 08:32N 35°54' W 127°03'1414.3
2014-Jul-14 07:33N 36°02' W 127°18'1514.2
2014-Jul-14 06:30N 36°10' W 127°33'1414.3
2014-Jul-14 05:33N 36°17' W 127°48'1514.6
2014-Jul-14 04:33N 36°25' W 128°03'1514.6
2014-Jul-14 03:31N 36°33' W 128°19'1514.8
2014-Jul-14 02:28N 36°41' W 128°35'1415.1
2014-Jul-14 01:33N 36°49' W 128°50'2115.0
2014-Jul-14 00:08N 36°60' W 129°12'914.9
2014-Jul-13 23:32N 37°05' W 129°22'2014.8
2014-Jul-13 22:11N 37°15' W 129°43'1015.0
2014-Jul-13 21:29N 37°21' W 129°54'1515.1
2014-Jul-13 20:29N 37°29' W 130°10'3115.3
2014-Jul-13 18:26N 37°46' W 130°44'2015.2
2014-Jul-13 17:08N 37°56' W 131°05'2615.2
2014-Jul-13 15:25N 38°10' W 131°33'1515.1
2014-Jul-13 14:26N 38°18' W 131°49'  

Dump ship's entire track history